sensor_id;sensor_type;location;lat;lon;timestamp;P1;durP1;ratioP1;P2;durP2;ratioP2
25279;SDS011;13225;47.804;12.116;2022-10-17T00:01:41;7.13;;;3.53;;
25279;SDS011;13225;47.804;12.116;2022-10-17T00:04:06;6.57;;;3.30;;
25279;SDS011;13225;47.804;12.116;2022-10-17T00:06:32;5.25;;;3.35;;
25279;SDS011;13225;47.804;12.116;2022-10-17T00:08:57;4.55;;;3.25;;
25279;SDS011;13225;47.804;12.116;2022-10-17T00:11:23;8.75;;;4.05;;
25279;SDS011;13225;47.804;12.116;2022-10-17T00:13:50;6.63;;;3.75;;
25279;SDS011;13225;47.804;12.116;2022-10-17T00:16:26;5.53;;;3.58;;
25279;SDS011;13225;47.804;12.116;2022-10-17T00:18:53;4.38;;;3.42;;
25279;SDS011;13225;47.804;12.116;2022-10-17T00:21:19;4.18;;;3.10;;
25279;SDS011;13225;47.804;12.116;2022-10-17T00:23:46;4.25;;;2.90;;
25279;SDS011;13225;47.804;12.116;2022-10-17T00:26:12;6.80;;;3.15;;
25279;SDS011;13225;47.804;12.116;2022-10-17T00:28:38;3.92;;;2.03;;
25279;SDS011;13225;47.804;12.116;2022-10-17T00:31:04;3.83;;;2.08;;
25279;SDS011;13225;47.804;12.116;2022-10-17T00:33:32;4.28;;;2.40;;
25279;SDS011;13225;47.804;12.116;2022-10-17T00:36:06;4.20;;;2.42;;
25279;SDS011;13225;47.804;12.116;2022-10-17T00:38:37;3.97;;;2.55;;
25279;SDS011;13225;47.804;12.116;2022-10-17T00:41:04;4.53;;;2.80;;
25279;SDS011;13225;47.804;12.116;2022-10-17T00:46:30;7.68;;;3.60;;
25279;SDS011;13225;47.804;12.116;2022-10-17T00:49:05;6.47;;;4.25;;
25279;SDS011;13225;47.804;12.116;2022-10-17T00:51:33;8.35;;;4.45;;
25279;SDS011;13225;47.804;12.116;2022-10-17T00:54:04;5.90;;;3.70;;
25279;SDS011;13225;47.804;12.116;2022-10-17T00:56:31;9.20;;;4.65;;
25279;SDS011;13225;47.804;12.116;2022-10-17T00:58:58;7.57;;;3.22;;
25279;SDS011;13225;47.804;12.116;2022-10-17T01:01:25;9.10;;;3.80;;
25279;SDS011;13225;47.804;12.116;2022-10-17T01:03:51;6.35;;;4.03;;
25279;SDS011;13225;47.804;12.116;2022-10-17T01:06:16;7.20;;;3.78;;
25279;SDS011;13225;47.804;12.116;2022-10-17T01:08:42;9.05;;;4.68;;
25279;SDS011;13225;47.804;12.116;2022-10-17T01:11:12;8.05;;;4.35;;
25279;SDS011;13225;47.804;12.116;2022-10-17T01:14:20;7.25;;;4.38;;
25279;SDS011;13225;47.804;12.116;2022-10-17T01:22:27;4.68;;;3.47;;
25279;SDS011;13225;47.804;12.116;2022-10-17T01:28:04;14.45;;;5.47;;
25279;SDS011;13225;47.804;12.116;2022-10-17T01:31:11;5.10;;;3.13;;
25279;SDS011;13225;47.804;12.116;2022-10-17T01:38:49;4.53;;;3.13;;
25279;SDS011;13225;47.804;12.116;2022-10-17T01:46:27;4.47;;;3.17;;
25279;SDS011;13225;47.804;12.116;2022-10-17T01:48:59;4.57;;;3.05;;
25279;SDS011;13225;47.804;12.116;2022-10-17T01:51:27;5.80;;;3.47;;
25279;SDS011;13225;47.804;12.116;2022-10-17T01:54:13;6.38;;;3.08;;
25279;SDS011;13225;47.804;12.116;2022-10-17T01:56:47;7.38;;;4.13;;
25279;SDS011;13225;47.804;12.116;2022-10-17T01:59:20;5.93;;;3.07;;
25279;SDS011;13225;47.804;12.116;2022-10-17T02:01:50;5.05;;;3.30;;
25279;SDS011;13225;47.804;12.116;2022-10-17T02:04:17;8.05;;;3.83;;
25279;SDS011;13225;47.804;12.116;2022-10-17T02:06:43;6.97;;;3.40;;
25279;SDS011;13225;47.804;12.116;2022-10-17T02:09:23;8.82;;;3.15;;
25279;SDS011;13225;47.804;12.116;2022-10-17T02:12:14;6.00;;;3.40;;
25279;SDS011;13225;47.804;12.116;2022-10-17T02:17:29;7.65;;;3.70;;
25279;SDS011;13225;47.804;12.116;2022-10-17T02:25:13;8.77;;;3.58;;
25279;SDS011;13225;47.804;12.116;2022-10-17T02:27:52;5.18;;;3.88;;
25279;SDS011;13225;47.804;12.116;2022-10-17T02:30:28;6.00;;;3.88;;
25279;SDS011;13225;47.804;12.116;2022-10-17T02:33:06;8.98;;;4.45;;
25279;SDS011;13225;47.804;12.116;2022-10-17T02:38:07;6.68;;;3.65;;
25279;SDS011;13225;47.804;12.116;2022-10-17T02:40:36;6.00;;;3.70;;
25279;SDS011;13225;47.804;12.116;2022-10-17T02:43:04;7.63;;;3.55;;
25279;SDS011;13225;47.804;12.116;2022-10-17T02:45:31;5.18;;;3.53;;
25279;SDS011;13225;47.804;12.116;2022-10-17T02:51:11;6.72;;;3.95;;
25279;SDS011;13225;47.804;12.116;2022-10-17T02:53:24;6.15;;;4.00;;
25279;SDS011;13225;47.804;12.116;2022-10-17T02:55:57;8.63;;;3.83;;
25279;SDS011;13225;47.804;12.116;2022-10-17T02:58:27;6.50;;;3.80;;
25279;SDS011;13225;47.804;12.116;2022-10-17T03:00:58;7.03;;;3.92;;
25279;SDS011;13225;47.804;12.116;2022-10-17T03:03:28;6.82;;;3.95;;
25279;SDS011;13225;47.804;12.116;2022-10-17T03:05:56;7.90;;;3.42;;
25279;SDS011;13225;47.804;12.116;2022-10-17T03:08:22;7.72;;;3.67;;
25279;SDS011;13225;47.804;12.116;2022-10-17T03:10:48;7.40;;;3.70;;
25279;SDS011;13225;47.804;12.116;2022-10-17T03:13:14;7.18;;;3.75;;
25279;SDS011;13225;47.804;12.116;2022-10-17T03:15:40;9.63;;;4.13;;
25279;SDS011;13225;47.804;12.116;2022-10-17T03:18:06;6.78;;;4.05;;
25279;SDS011;13225;47.804;12.116;2022-10-17T03:20:32;6.28;;;3.85;;
25279;SDS011;13225;47.804;12.116;2022-10-17T03:22:57;5.88;;;3.70;;
25279;SDS011;13225;47.804;12.116;2022-10-17T03:25:23;8.85;;;4.20;;
25279;SDS011;13225;47.804;12.116;2022-10-17T03:27:49;6.72;;;3.92;;
25279;SDS011;13225;47.804;12.116;2022-10-17T03:30:15;6.47;;;4.13;;
25279;SDS011;13225;47.804;12.116;2022-10-17T03:32:42;6.07;;;3.90;;
25279;SDS011;13225;47.804;12.116;2022-10-17T03:35:07;6.18;;;3.90;;
25279;SDS011;13225;47.804;12.116;2022-10-17T03:37:33;7.95;;;4.53;;
25279;SDS011;13225;47.804;12.116;2022-10-17T03:39:59;5.60;;;4.35;;
25279;SDS011;13225;47.804;12.116;2022-10-17T03:42:24;6.78;;;3.75;;
25279;SDS011;13225;47.804;12.116;2022-10-17T03:44:50;6.50;;;3.72;;
25279;SDS011;13225;47.804;12.116;2022-10-17T03:47:15;5.65;;;3.55;;
25279;SDS011;13225;47.804;12.116;2022-10-17T03:49:41;6.53;;;4.10;;
25279;SDS011;13225;47.804;12.116;2022-10-17T03:52:10;7.10;;;4.03;;
25279;SDS011;13225;47.804;12.116;2022-10-17T03:54:39;6.90;;;4.30;;
25279;SDS011;13225;47.804;12.116;2022-10-17T03:57:05;6.65;;;4.05;;
25279;SDS011;13225;47.804;12.116;2022-10-17T03:59:30;8.27;;;3.80;;
25279;SDS011;13225;47.804;12.116;2022-10-17T04:01:56;9.18;;;4.18;;
25279;SDS011;13225;47.804;12.116;2022-10-17T04:04:21;7.70;;;3.85;;
25279;SDS011;13225;47.804;12.116;2022-10-17T04:06:48;7.18;;;4.05;;
25279;SDS011;13225;47.804;12.116;2022-10-17T04:09:14;6.57;;;4.30;;
25279;SDS011;13225;47.804;12.116;2022-10-17T04:11:40;6.30;;;4.10;;
25279;SDS011;13225;47.804;12.116;2022-10-17T04:14:05;8.43;;;4.30;;
25279;SDS011;13225;47.804;12.116;2022-10-17T04:16:31;6.18;;;4.28;;
25279;SDS011;13225;47.804;12.116;2022-10-17T04:18:57;6.32;;;3.70;;
25279;SDS011;13225;47.804;12.116;2022-10-17T04:21:24;8.68;;;3.22;;
25279;SDS011;13225;47.804;12.116;2022-10-17T04:23:54;6.78;;;3.50;;
25279;SDS011;13225;47.804;12.116;2022-10-17T04:26:20;4.88;;;2.95;;
25279;SDS011;13225;47.804;12.116;2022-10-17T04:28:46;5.65;;;3.15;;
25279;SDS011;13225;47.804;12.116;2022-10-17T04:31:12;4.63;;;3.00;;
25279;SDS011;13225;47.804;12.116;2022-10-17T04:33:38;4.88;;;3.08;;
25279;SDS011;13225;47.804;12.116;2022-10-17T04:38:31;4.97;;;3.20;;
25279;SDS011;13225;47.804;12.116;2022-10-17T04:40:58;5.60;;;3.50;;
25279;SDS011;13225;47.804;12.116;2022-10-17T04:43:27;5.78;;;4.18;;
25279;SDS011;13225;47.804;12.116;2022-10-17T04:45:55;7.07;;;3.58;;
25279;SDS011;13225;47.804;12.116;2022-10-17T04:48:21;6.75;;;3.47;;
25279;SDS011;13225;47.804;12.116;2022-10-17T04:50:53;5.70;;;3.10;;
25279;SDS011;13225;47.804;12.116;2022-10-17T04:53:21;8.00;;;3.88;;
25279;SDS011;13225;47.804;12.116;2022-10-17T04:55:47;7.07;;;3.60;;
25279;SDS011;13225;47.804;12.116;2022-10-17T04:58:13;7.60;;;4.03;;
25279;SDS011;13225;47.804;12.116;2022-10-17T05:00:39;4.45;;;3.63;;
25279;SDS011;13225;47.804;12.116;2022-10-17T05:03:05;6.85;;;3.80;;
25279;SDS011;13225;47.804;12.116;2022-10-17T05:05:31;7.57;;;3.45;;
25279;SDS011;13225;47.804;12.116;2022-10-17T05:07:56;6.63;;;3.17;;
25279;SDS011;13225;47.804;12.116;2022-10-17T05:10:22;5.90;;;4.15;;
25279;SDS011;13225;47.804;12.116;2022-10-17T05:12:48;8.88;;;4.93;;
25279;SDS011;13225;47.804;12.116;2022-10-17T05:15:14;10.18;;;6.75;;
25279;SDS011;13225;47.804;12.116;2022-10-17T05:17:40;15.00;;;8.73;;
25279;SDS011;13225;47.804;12.116;2022-10-17T05:20:06;14.40;;;6.85;;
25279;SDS011;13225;47.804;12.116;2022-10-17T05:22:32;16.65;;;10.02;;
25279;SDS011;13225;47.804;12.116;2022-10-17T05:24:58;6.70;;;4.28;;
25279;SDS011;13225;47.804;12.116;2022-10-17T05:27:24;6.75;;;3.75;;
25279;SDS011;13225;47.804;12.116;2022-10-17T05:29:49;5.22;;;3.53;;
25279;SDS011;13225;47.804;12.116;2022-10-17T05:32:15;8.57;;;4.07;;
25279;SDS011;13225;47.804;12.116;2022-10-17T05:34:41;5.65;;;3.78;;
25279;SDS011;13225;47.804;12.116;2022-10-17T05:37:06;5.95;;;3.67;;
25279;SDS011;13225;47.804;12.116;2022-10-17T05:39:32;5.47;;;4.05;;
25279;SDS011;13225;47.804;12.116;2022-10-17T05:41:57;14.38;;;9.23;;
25279;SDS011;13225;47.804;12.116;2022-10-17T05:44:24;12.65;;;7.53;;
25279;SDS011;13225;47.804;12.116;2022-10-17T05:46:50;21.10;;;11.90;;
25279;SDS011;13225;47.804;12.116;2022-10-17T05:49:16;9.25;;;5.93;;
25279;SDS011;13225;47.804;12.116;2022-10-17T05:51:42;14.27;;;9.20;;
25279;SDS011;13225;47.804;12.116;2022-10-17T05:54:08;16.27;;;9.23;;
25279;SDS011;13225;47.804;12.116;2022-10-17T05:56:33;7.85;;;5.95;;
25279;SDS011;13225;47.804;12.116;2022-10-17T05:58:59;8.80;;;4.88;;
25279;SDS011;13225;47.804;12.116;2022-10-17T06:01:25;7.50;;;5.70;;
25279;SDS011;13225;47.804;12.116;2022-10-17T06:03:50;15.02;;;5.18;;
25279;SDS011;13225;47.804;12.116;2022-10-17T06:06:16;5.95;;;3.40;;
25279;SDS011;13225;47.804;12.116;2022-10-17T06:08:42;8.23;;;3.17;;
25279;SDS011;13225;47.804;12.116;2022-10-17T06:11:09;4.75;;;3.78;;
25279;SDS011;13225;47.804;12.116;2022-10-17T06:13:36;6.25;;;4.30;;
25279;SDS011;13225;47.804;12.116;2022-10-17T06:16:02;4.55;;;3.20;;
25279;SDS011;13225;47.804;12.116;2022-10-17T06:18:28;6.40;;;3.55;;
25279;SDS011;13225;47.804;12.116;2022-10-17T06:20:53;4.20;;;2.90;;
25279;SDS011;13225;47.804;12.116;2022-10-17T06:23:25;4.25;;;2.85;;
25279;SDS011;13225;47.804;12.116;2022-10-17T06:25:51;8.95;;;5.30;;
25279;SDS011;13225;47.804;12.116;2022-10-17T06:28:17;8.57;;;3.95;;
25279;SDS011;13225;47.804;12.116;2022-10-17T06:30:43;6.35;;;3.80;;
25279;SDS011;13225;47.804;12.116;2022-10-17T06:33:09;5.22;;;3.72;;
25279;SDS011;13225;47.804;12.116;2022-10-17T06:35:34;8.75;;;4.13;;
25279;SDS011;13225;47.804;12.116;2022-10-17T06:38:00;6.07;;;3.78;;
25279;SDS011;13225;47.804;12.116;2022-10-17T06:40:27;6.97;;;4.00;;
25279;SDS011;13225;47.804;12.116;2022-10-17T06:42:54;7.22;;;4.32;;
25279;SDS011;13225;47.804;12.116;2022-10-17T06:45:20;7.47;;;4.25;;
25279;SDS011;13225;47.804;12.116;2022-10-17T06:47:46;6.90;;;4.00;;
25279;SDS011;13225;47.804;12.116;2022-10-17T06:50:11;9.40;;;3.92;;
25279;SDS011;13225;47.804;12.116;2022-10-17T06:52:37;6.65;;;4.00;;
25279;SDS011;13225;47.804;12.116;2022-10-17T06:55:03;6.45;;;3.65;;
25279;SDS011;13225;47.804;12.116;2022-10-17T06:57:29;6.47;;;3.65;;
25279;SDS011;13225;47.804;12.116;2022-10-17T06:59:55;10.68;;;5.15;;
25279;SDS011;13225;47.804;12.116;2022-10-17T07:02:21;7.88;;;4.25;;
25279;SDS011;13225;47.804;12.116;2022-10-17T07:04:48;4.90;;;2.83;;
25279;SDS011;13225;47.804;12.116;2022-10-17T07:07:14;6.18;;;3.50;;
25279;SDS011;13225;47.804;12.116;2022-10-17T07:09:39;3.90;;;3.25;;
25279;SDS011;13225;47.804;12.116;2022-10-17T07:12:05;9.98;;;5.60;;
25279;SDS011;13225;47.804;12.116;2022-10-17T07:14:32;7.43;;;4.20;;
25279;SDS011;13225;47.804;12.116;2022-10-17T07:16:59;9.73;;;4.70;;
25279;SDS011;13225;47.804;12.116;2022-10-17T07:19:25;5.75;;;3.67;;
25279;SDS011;13225;47.804;12.116;2022-10-17T07:21:51;7.47;;;3.58;;
25279;SDS011;13225;47.804;12.116;2022-10-17T07:24:17;5.45;;;4.00;;
25279;SDS011;13225;47.804;12.116;2022-10-17T07:26:43;8.18;;;4.35;;
25279;SDS011;13225;47.804;12.116;2022-10-17T07:29:08;12.43;;;4.68;;
25279;SDS011;13225;47.804;12.116;2022-10-17T07:31:34;9.07;;;4.53;;
25279;SDS011;13225;47.804;12.116;2022-10-17T07:34:00;7.40;;;4.43;;
25279;SDS011;13225;47.804;12.116;2022-10-17T07:36:26;7.93;;;4.07;;
25279;SDS011;13225;47.804;12.116;2022-10-17T07:38:51;4.88;;;3.53;;
25279;SDS011;13225;47.804;12.116;2022-10-17T07:41:17;7.47;;;3.22;;
25279;SDS011;13225;47.804;12.116;2022-10-17T07:43:43;5.82;;;3.28;;
25279;SDS011;13225;47.804;12.116;2022-10-17T07:46:09;5.30;;;3.33;;
25279;SDS011;13225;47.804;12.116;2022-10-17T07:48:35;5.40;;;3.00;;
25279;SDS011;13225;47.804;12.116;2022-10-17T07:51:03;8.25;;;3.45;;
25279;SDS011;13225;47.804;12.116;2022-10-17T07:53:30;6.28;;;4.20;;
25279;SDS011;13225;47.804;12.116;2022-10-17T07:55:56;9.35;;;3.80;;
25279;SDS011;13225;47.804;12.116;2022-10-17T07:58:22;9.30;;;3.78;;
25279;SDS011;13225;47.804;12.116;2022-10-17T08:00:48;6.57;;;3.08;;
25279;SDS011;13225;47.804;12.116;2022-10-17T08:03:14;7.03;;;3.72;;
25279;SDS011;13225;47.804;12.116;2022-10-17T08:05:43;4.40;;;3.30;;
25279;SDS011;13225;47.804;12.116;2022-10-17T08:08:09;6.40;;;3.45;;
25279;SDS011;13225;47.804;12.116;2022-10-17T08:10:34;9.05;;;3.78;;
25279;SDS011;13225;47.804;12.116;2022-10-17T08:13:01;6.70;;;3.50;;
25279;SDS011;13225;47.804;12.116;2022-10-17T08:15:27;5.32;;;3.78;;
25279;SDS011;13225;47.804;12.116;2022-10-17T08:17:52;4.47;;;3.30;;
25279;SDS011;13225;47.804;12.116;2022-10-17T08:20:19;6.28;;;3.38;;
25279;SDS011;13225;47.804;12.116;2022-10-17T08:22:52;6.20;;;3.63;;
25279;SDS011;13225;47.804;12.116;2022-10-17T08:27:44;6.80;;;3.50;;
25279;SDS011;13225;47.804;12.116;2022-10-17T08:30:10;4.95;;;3.03;;
25279;SDS011;13225;47.804;12.116;2022-10-17T08:32:35;4.15;;;3.28;;
25279;SDS011;13225;47.804;12.116;2022-10-17T08:35:01;5.70;;;3.40;;
25279;SDS011;13225;47.804;12.116;2022-10-17T08:37:27;6.65;;;3.30;;
25279;SDS011;13225;47.804;12.116;2022-10-17T08:39:54;4.40;;;3.45;;
25279;SDS011;13225;47.804;12.116;2022-10-17T08:47:59;6.90;;;3.30;;
25279;SDS011;13225;47.804;12.116;2022-10-17T08:50:41;4.07;;;3.40;;
25279;SDS011;13225;47.804;12.116;2022-10-17T08:53:21;6.47;;;3.20;;
25279;SDS011;13225;47.804;12.116;2022-10-17T08:55:53;4.65;;;3.45;;
25279;SDS011;13225;47.804;12.116;2022-10-17T08:58:23;5.85;;;3.40;;
25279;SDS011;13225;47.804;12.116;2022-10-17T09:06:36;6.60;;;3.63;;
25279;SDS011;13225;47.804;12.116;2022-10-17T09:09:17;4.45;;;3.50;;
25279;SDS011;13225;47.804;12.116;2022-10-17T09:12:15;7.03;;;4.00;;
25279;SDS011;13225;47.804;12.116;2022-10-17T09:19:59;10.32;;;4.00;;
25279;SDS011;13225;47.804;12.116;2022-10-17T09:22:44;5.40;;;3.65;;
25279;SDS011;13225;47.804;12.116;2022-10-17T09:25:16;5.55;;;3.60;;
25279;SDS011;13225;47.804;12.116;2022-10-17T09:27:51;6.05;;;3.70;;
25279;SDS011;13225;47.804;12.116;2022-10-17T09:33:40;5.38;;;3.83;;
25279;SDS011;13225;47.804;12.116;2022-10-17T09:38:55;4.55;;;3.35;;
25279;SDS011;13225;47.804;12.116;2022-10-17T09:41:24;6.80;;;3.53;;
25279;SDS011;13225;47.804;12.116;2022-10-17T09:43:57;5.13;;;3.50;;
25279;SDS011;13225;47.804;12.116;2022-10-17T09:46:35;6.03;;;3.75;;
25279;SDS011;13225;47.804;12.116;2022-10-17T09:49:09;6.97;;;3.40;;
25279;SDS011;13225;47.804;12.116;2022-10-17T09:51:39;5.35;;;3.58;;
25279;SDS011;13225;47.804;12.116;2022-10-17T09:54:18;5.05;;;3.58;;
25279;SDS011;13225;47.804;12.116;2022-10-17T09:57:00;6.00;;;3.38;;
25279;SDS011;13225;47.804;12.116;2022-10-17T09:59:38;9.90;;;3.67;;
25279;SDS011;13225;47.804;12.116;2022-10-17T10:02:24;4.95;;;3.30;;
25279;SDS011;13225;47.804;12.116;2022-10-17T10:05:13;5.28;;;3.83;;
25279;SDS011;13225;47.804;12.116;2022-10-17T10:07:41;5.90;;;3.67;;
25279;SDS011;13225;47.804;12.116;2022-10-17T10:10:24;5.90;;;3.55;;
25279;SDS011;13225;47.804;12.116;2022-10-17T10:15:40;7.85;;;3.72;;
25279;SDS011;13225;47.804;12.116;2022-10-17T10:20:51;5.20;;;3.60;;
25279;SDS011;13225;47.804;12.116;2022-10-17T10:23:31;3.72;;;3.25;;
25279;SDS011;13225;47.804;12.116;2022-10-17T10:26:00;5.22;;;3.47;;
25279;SDS011;13225;47.804;12.116;2022-10-17T10:28:32;5.10;;;3.42;;
25279;SDS011;13225;47.804;12.116;2022-10-17T10:31:01;6.47;;;3.40;;
25279;SDS011;13225;47.804;12.116;2022-10-17T10:33:31;9.77;;;3.60;;
25279;SDS011;13225;47.804;12.116;2022-10-17T10:36:00;9.98;;;3.38;;
25279;SDS011;13225;47.804;12.116;2022-10-17T10:38:28;4.97;;;3.20;;
25279;SDS011;13225;47.804;12.116;2022-10-17T10:41:08;8.00;;;3.63;;
25279;SDS011;13225;47.804;12.116;2022-10-17T10:48:50;5.00;;;3.50;;
25279;SDS011;13225;47.804;12.116;2022-10-17T10:51:21;6.50;;;3.67;;
25279;SDS011;13225;47.804;12.116;2022-10-17T10:53:53;7.60;;;3.90;;
25279;SDS011;13225;47.804;12.116;2022-10-17T10:56:55;7.60;;;5.22;;
25279;SDS011;13225;47.804;12.116;2022-10-17T11:02:35;5.95;;;4.35;;
25279;SDS011;13225;47.804;12.116;2022-10-17T11:08:07;7.70;;;4.00;;
25279;SDS011;13225;47.804;12.116;2022-10-17T11:10:37;6.57;;;3.97;;
25279;SDS011;13225;47.804;12.116;2022-10-17T11:13:22;7.88;;;3.83;;
25279;SDS011;13225;47.804;12.116;2022-10-17T11:18:54;6.03;;;4.10;;
25279;SDS011;13225;47.804;12.116;2022-10-17T11:21:35;5.93;;;3.97;;
25279;SDS011;13225;47.804;12.116;2022-10-17T11:27:21;3.90;;;3.35;;
25279;SDS011;13225;47.804;12.116;2022-10-17T11:29:52;4.35;;;3.17;;
25279;SDS011;13225;47.804;12.116;2022-10-17T11:35:06;5.05;;;3.08;;
25279;SDS011;13225;47.804;12.116;2022-10-17T11:37:52;6.32;;;3.30;;
25279;SDS011;13225;47.804;12.116;2022-10-17T11:40:28;7.20;;;3.70;;
25279;SDS011;13225;47.804;12.116;2022-10-17T11:43:00;4.35;;;3.50;;
25279;SDS011;13225;47.804;12.116;2022-10-17T11:45:31;6.05;;;3.03;;
25279;SDS011;13225;47.804;12.116;2022-10-17T11:48:11;3.63;;;3.28;;
25279;SDS011;13225;47.804;12.116;2022-10-17T11:50:38;7.15;;;3.58;;
25279;SDS011;13225;47.804;12.116;2022-10-17T11:55:41;4.80;;;3.45;;
25279;SDS011;13225;47.804;12.116;2022-10-17T12:05:59;5.55;;;3.20;;
25279;SDS011;13225;47.804;12.116;2022-10-17T12:08:43;4.88;;;3.13;;
25279;SDS011;13225;47.804;12.116;2022-10-17T12:11:47;5.40;;;3.28;;
25279;SDS011;13225;47.804;12.116;2022-10-17T12:22:58;3.33;;;2.67;;
25279;SDS011;13225;47.804;12.116;2022-10-17T12:25:31;3.28;;;2.95;;
25279;SDS011;13225;47.804;12.116;2022-10-17T12:30:30;3.55;;;3.10;;
25279;SDS011;13225;47.804;12.116;2022-10-17T12:33:04;3.45;;;3.00;;
25279;SDS011;13225;47.804;12.116;2022-10-17T12:35:50;3.70;;;3.30;;
25279;SDS011;13225;47.804;12.116;2022-10-17T12:44:44;4.25;;;3.10;;
25279;SDS011;13225;47.804;12.116;2022-10-17T12:49:38;4.32;;;3.05;;
25279;SDS011;13225;47.804;12.116;2022-10-17T13:00:11;3.00;;;2.80;;
25279;SDS011;13225;47.804;12.116;2022-10-17T13:02:41;2.92;;;2.47;;
25279;SDS011;13225;47.804;12.116;2022-10-17T13:05:14;3.00;;;2.70;;
25279;SDS011;13225;47.804;12.116;2022-10-17T13:07:50;2.60;;;2.35;;
25279;SDS011;13225;47.804;12.116;2022-10-17T13:10:18;4.03;;;2.75;;
25279;SDS011;13225;47.804;12.116;2022-10-17T13:12:47;4.40;;;3.00;;
25279;SDS011;13225;47.804;12.116;2022-10-17T13:15:15;3.40;;;2.75;;
25279;SDS011;13225;47.804;12.116;2022-10-17T13:17:43;4.18;;;3.08;;
25279;SDS011;13225;47.804;12.116;2022-10-17T13:20:19;3.70;;;2.70;;
25279;SDS011;13225;47.804;12.116;2022-10-17T13:22:47;3.25;;;2.80;;
25279;SDS011;13225;47.804;12.116;2022-10-17T13:25:16;3.63;;;3.28;;
25279;SDS011;13225;47.804;12.116;2022-10-17T13:27:44;3.75;;;2.97;;
25279;SDS011;13225;47.804;12.116;2022-10-17T13:30:21;3.85;;;3.08;;
25279;SDS011;13225;47.804;12.116;2022-10-17T13:32:59;3.85;;;3.10;;
25279;SDS011;13225;47.804;12.116;2022-10-17T13:37:53;5.05;;;2.78;;
25279;SDS011;13225;47.804;12.116;2022-10-17T13:40:29;6.32;;;3.30;;
25279;SDS011;13225;47.804;12.116;2022-10-17T13:42:56;5.03;;;2.83;;
25279;SDS011;13225;47.804;12.116;2022-10-17T13:45:30;3.83;;;2.75;;
25279;SDS011;13225;47.804;12.116;2022-10-17T13:48:02;4.13;;;2.83;;
25279;SDS011;13225;47.804;12.116;2022-10-17T13:50:31;3.97;;;2.80;;
25279;SDS011;13225;47.804;12.116;2022-10-17T13:53:05;5.53;;;3.13;;
25279;SDS011;13225;47.804;12.116;2022-10-17T13:55:32;3.45;;;3.08;;
25279;SDS011;13225;47.804;12.116;2022-10-17T13:58:08;3.85;;;3.45;;
25279;SDS011;13225;47.804;12.116;2022-10-17T14:00:39;3.80;;;3.20;;
25279;SDS011;13225;47.804;12.116;2022-10-17T14:03:05;3.85;;;3.25;;
25279;SDS011;13225;47.804;12.116;2022-10-17T14:05:33;5.15;;;2.92;;
25279;SDS011;13225;47.804;12.116;2022-10-17T14:08:03;3.90;;;2.90;;
25279;SDS011;13225;47.804;12.116;2022-10-17T14:10:29;4.72;;;3.20;;
25279;SDS011;13225;47.804;12.116;2022-10-17T14:12:57;3.30;;;3.00;;
25279;SDS011;13225;47.804;12.116;2022-10-17T14:15:28;5.07;;;3.15;;
25279;SDS011;13225;47.804;12.116;2022-10-17T14:18:02;7.07;;;3.03;;
25279;SDS011;13225;47.804;12.116;2022-10-17T14:20:30;4.22;;;3.15;;
25279;SDS011;13225;47.804;12.116;2022-10-17T14:22:57;3.38;;;3.08;;
25279;SDS011;13225;47.804;12.116;2022-10-17T14:25:33;3.08;;;2.70;;
25279;SDS011;13225;47.804;12.116;2022-10-17T14:28:06;3.15;;;2.80;;
25279;SDS011;13225;47.804;12.116;2022-10-17T14:30:40;3.30;;;2.95;;
25279;SDS011;13225;47.804;12.116;2022-10-17T14:33:12;6.75;;;3.10;;
25279;SDS011;13225;47.804;12.116;2022-10-17T14:36:04;3.92;;;2.90;;
25279;SDS011;13225;47.804;12.116;2022-10-17T14:38:30;5.57;;;3.03;;
25279;SDS011;13225;47.804;12.116;2022-10-17T14:40:58;4.50;;;3.15;;
25279;SDS011;13225;47.804;12.116;2022-10-17T14:43:30;3.83;;;3.17;;
25279;SDS011;13225;47.804;12.116;2022-10-17T14:45:57;12.50;;;4.35;;
25279;SDS011;13225;47.804;12.116;2022-10-17T14:48:27;5.35;;;3.13;;
25279;SDS011;13225;47.804;12.116;2022-10-17T14:51:06;3.72;;;3.08;;
25279;SDS011;13225;47.804;12.116;2022-10-17T14:53:32;5.40;;;3.38;;
25279;SDS011;13225;47.804;12.116;2022-10-17T14:56:00;5.38;;;3.35;;
25279;SDS011;13225;47.804;12.116;2022-10-17T14:58:29;4.15;;;3.35;;
25279;SDS011;13225;47.804;12.116;2022-10-17T15:00:57;6.00;;;3.13;;
25279;SDS011;13225;47.804;12.116;2022-10-17T15:03:24;4.32;;;3.80;;
25279;SDS011;13225;47.804;12.116;2022-10-17T15:05:51;4.30;;;3.13;;
25279;SDS011;13225;47.804;12.116;2022-10-17T15:08:19;6.30;;;3.50;;
25279;SDS011;13225;47.804;12.116;2022-10-17T15:10:46;4.57;;;3.25;;
25279;SDS011;13225;47.804;12.116;2022-10-17T15:13:13;4.95;;;3.00;;
25279;SDS011;13225;47.804;12.116;2022-10-17T15:15:40;4.05;;;3.00;;
25279;SDS011;13225;47.804;12.116;2022-10-17T15:18:06;4.95;;;2.88;;
25279;SDS011;13225;47.804;12.116;2022-10-17T15:20:35;7.25;;;3.47;;
25279;SDS011;13225;47.804;12.116;2022-10-17T15:23:01;5.05;;;2.70;;
25279;SDS011;13225;47.804;12.116;2022-10-17T15:25:28;5.93;;;3.28;;
25279;SDS011;13225;47.804;12.116;2022-10-17T15:27:55;6.72;;;3.58;;
25279;SDS011;13225;47.804;12.116;2022-10-17T15:30:22;6.80;;;3.33;;
25279;SDS011;13225;47.804;12.116;2022-10-17T15:32:49;5.32;;;3.53;;
25279;SDS011;13225;47.804;12.116;2022-10-17T15:35:16;8.02;;;4.03;;
25279;SDS011;13225;47.804;12.116;2022-10-17T15:37:43;8.35;;;4.40;;
25279;SDS011;13225;47.804;12.116;2022-10-17T15:40:21;6.03;;;3.50;;
25279;SDS011;13225;47.804;12.116;2022-10-17T15:42:52;8.02;;;3.78;;
25279;SDS011;13225;47.804;12.116;2022-10-17T15:45:19;9.65;;;4.28;;
25279;SDS011;13225;47.804;12.116;2022-10-17T15:47:53;7.57;;;3.40;;
25279;SDS011;13225;47.804;12.116;2022-10-17T15:50:20;6.00;;;3.78;;
25279;SDS011;13225;47.804;12.116;2022-10-17T15:52:48;12.95;;;4.00;;
25279;SDS011;13225;47.804;12.116;2022-10-17T15:55:17;6.50;;;3.72;;
25279;SDS011;13225;47.804;12.116;2022-10-17T15:57:43;7.05;;;3.60;;
25279;SDS011;13225;47.804;12.116;2022-10-17T16:00:17;4.57;;;3.42;;
25279;SDS011;13225;47.804;12.116;2022-10-17T16:02:47;6.47;;;3.47;;
25279;SDS011;13225;47.804;12.116;2022-10-17T16:07:42;5.70;;;3.30;;
25279;SDS011;13225;47.804;12.116;2022-10-17T16:10:10;9.57;;;4.07;;
25279;SDS011;13225;47.804;12.116;2022-10-17T16:12:36;5.97;;;3.78;;
25279;SDS011;13225;47.804;12.116;2022-10-17T16:15:12;7.85;;;4.10;;
25279;SDS011;13225;47.804;12.116;2022-10-17T16:17:39;9.90;;;3.90;;
25279;SDS011;13225;47.804;12.116;2022-10-17T16:20:05;8.05;;;3.90;;
25279;SDS011;13225;47.804;12.116;2022-10-17T16:22:32;8.88;;;3.95;;
25279;SDS011;13225;47.804;12.116;2022-10-17T16:25:06;10.15;;;3.80;;
25279;SDS011;13225;47.804;12.116;2022-10-17T16:27:43;8.60;;;4.40;;
25279;SDS011;13225;47.804;12.116;2022-10-17T16:30:10;6.72;;;4.15;;
25279;SDS011;13225;47.804;12.116;2022-10-17T16:32:35;7.85;;;4.50;;
25279;SDS011;13225;47.804;12.116;2022-10-17T16:35:01;6.95;;;4.00;;
25279;SDS011;13225;47.804;12.116;2022-10-17T16:37:27;6.88;;;4.03;;
25279;SDS011;13225;47.804;12.116;2022-10-17T16:39:53;9.10;;;4.07;;
25279;SDS011;13225;47.804;12.116;2022-10-17T16:42:19;6.22;;;3.85;;
25279;SDS011;13225;47.804;12.116;2022-10-17T16:44:44;7.32;;;3.92;;
25279;SDS011;13225;47.804;12.116;2022-10-17T16:47:10;8.52;;;4.40;;
25279;SDS011;13225;47.804;12.116;2022-10-17T16:49:36;7.20;;;4.40;;
25279;SDS011;13225;47.804;12.116;2022-10-17T16:52:02;9.48;;;4.60;;
25279;SDS011;13225;47.804;12.116;2022-10-17T16:54:28;9.95;;;4.80;;
25279;SDS011;13225;47.804;12.116;2022-10-17T16:56:54;10.93;;;5.05;;
25279;SDS011;13225;47.804;12.116;2022-10-17T16:59:21;9.80;;;4.88;;